sensor_id;sensor_type;location;lat;lon;timestamp;P1;durP1;ratioP1;P2;durP2;ratioP2
78430;SDS011;67727;50.236;22.452;2023-07-13T00:00:09;17.50;;;13.10;;
78430;SDS011;67727;50.236;22.452;2023-07-13T00:02:57;15.20;;;12.40;;
78430;SDS011;67727;50.236;22.452;2023-07-13T00:05:24;13.20;;;10.70;;
78430;SDS011;67727;50.236;22.452;2023-07-13T00:07:51;14.60;;;11.50;;
78430;SDS011;67727;50.236;22.452;2023-07-13T00:10:19;13.80;;;10.30;;
78430;SDS011;67727;50.236;22.452;2023-07-13T00:12:46;16.90;;;10.80;;
78430;SDS011;67727;50.236;22.452;2023-07-13T00:15:14;14.70;;;11.50;;
78430;SDS011;67727;50.236;22.452;2023-07-13T00:17:43;16.70;;;10.50;;
78430;SDS011;67727;50.236;22.452;2023-07-13T00:20:13;14.40;;;12.20;;
78430;SDS011;67727;50.236;22.452;2023-07-13T00:22:40;14.10;;;11.30;;
78430;SDS011;67727;50.236;22.452;2023-07-13T00:25:09;15.30;;;11.50;;
78430;SDS011;67727;50.236;22.452;2023-07-13T00:27:37;16.40;;;10.50;;
78430;SDS011;67727;50.236;22.452;2023-07-13T00:30:04;15.10;;;10.10;;
78430;SDS011;67727;50.236;22.452;2023-07-13T00:32:32;14.10;;;11.20;;
78430;SDS011;67727;50.236;22.452;2023-07-13T00:34:59;16.90;;;11.10;;
78430;SDS011;67727;50.236;22.452;2023-07-13T00:37:26;14.40;;;10.30;;
78430;SDS011;67727;50.236;22.452;2023-07-13T00:39:53;16.50;;;10.50;;
78430;SDS011;67727;50.236;22.452;2023-07-13T00:45:03;14.10;;;10.10;;
78430;SDS011;67727;50.236;22.452;2023-07-13T00:47:33;15.60;;;11.80;;
78430;SDS011;67727;50.236;22.452;2023-07-13T00:50:00;15.50;;;11.20;;
78430;SDS011;67727;50.236;22.452;2023-07-13T00:52:29;14.70;;;11.80;;
78430;SDS011;67727;50.236;22.452;2023-07-13T00:54:57;14.10;;;11.50;;
78430;SDS011;67727;50.236;22.452;2023-07-13T00:57:24;13.80;;;9.80;;
78430;SDS011;67727;50.236;22.452;2023-07-13T00:59:52;14.30;;;11.30;;
78430;SDS011;67727;50.236;22.452;2023-07-13T01:02:33;13.30;;;9.70;;
78430;SDS011;67727;50.236;22.452;2023-07-13T01:05:04;14.10;;;10.20;;
78430;SDS011;67727;50.236;22.452;2023-07-13T01:10:11;12.50;;;10.30;;
78430;SDS011;67727;50.236;22.452;2023-07-13T01:12:39;13.80;;;10.60;;
78430;SDS011;67727;50.236;22.452;2023-07-13T01:18:10;16.50;;;11.60;;
78430;SDS011;67727;50.236;22.452;2023-07-13T01:20:41;16.70;;;11.80;;
78430;SDS011;67727;50.236;22.452;2023-07-13T01:23:13;13.10;;;10.30;;
78430;SDS011;67727;50.236;22.452;2023-07-13T01:25:39;15.10;;;11.40;;
78430;SDS011;67727;50.236;22.452;2023-07-13T01:30:38;14.20;;;10.20;;
78430;SDS011;67727;50.236;22.452;2023-07-13T01:33:07;14.60;;;9.90;;
78430;SDS011;67727;50.236;22.452;2023-07-13T01:35:35;13.20;;;10.20;;
78430;SDS011;67727;50.236;22.452;2023-07-13T01:38:03;13.70;;;10.50;;
78430;SDS011;67727;50.236;22.452;2023-07-13T01:40:31;15.70;;;10.30;;
78430;SDS011;67727;50.236;22.452;2023-07-13T01:45:25;14.90;;;10.50;;
78430;SDS011;67727;50.236;22.452;2023-07-13T01:47:52;15.90;;;11.20;;
78430;SDS011;67727;50.236;22.452;2023-07-13T01:50:19;12.70;;;10.10;;
78430;SDS011;67727;50.236;22.452;2023-07-13T01:52:46;14.20;;;10.30;;
78430;SDS011;67727;50.236;22.452;2023-07-13T01:55:13;16.00;;;11.30;;
78430;SDS011;67727;50.236;22.452;2023-07-13T01:57:40;13.50;;;10.30;;
78430;SDS011;67727;50.236;22.452;2023-07-13T02:00:10;16.00;;;11.40;;
78430;SDS011;67727;50.236;22.452;2023-07-13T02:02:37;13.30;;;10.30;;
78430;SDS011;67727;50.236;22.452;2023-07-13T02:05:04;13.40;;;9.70;;
78430;SDS011;67727;50.236;22.452;2023-07-13T02:07:32;14.80;;;10.40;;
78430;SDS011;67727;50.236;22.452;2023-07-13T02:09:59;15.60;;;10.10;;
78430;SDS011;67727;50.236;22.452;2023-07-13T02:12:26;12.20;;;9.80;;
78430;SDS011;67727;50.236;22.452;2023-07-13T02:14:53;16.90;;;11.30;;
78430;SDS011;67727;50.236;22.452;2023-07-13T02:19:46;17.00;;;11.80;;
78430;SDS011;67727;50.236;22.452;2023-07-13T02:22:13;12.10;;;10.80;;
78430;SDS011;67727;50.236;22.452;2023-07-13T02:27:07;16.50;;;10.70;;
78430;SDS011;67727;50.236;22.452;2023-07-13T02:29:34;14.30;;;11.00;;
78430;SDS011;67727;50.236;22.452;2023-07-13T02:32:01;16.00;;;12.10;;
78430;SDS011;67727;50.236;22.452;2023-07-13T02:34:28;16.60;;;10.60;;
78430;SDS011;67727;50.236;22.452;2023-07-13T02:36:55;14.50;;;9.70;;
78430;SDS011;67727;50.236;22.452;2023-07-13T02:39:22;15.70;;;11.20;;
78430;SDS011;67727;50.236;22.452;2023-07-13T02:41:49;14.60;;;10.30;;
78430;SDS011;67727;50.236;22.452;2023-07-13T02:44:15;16.20;;;10.60;;
78430;SDS011;67727;50.236;22.452;2023-07-13T02:46:42;17.60;;;11.70;;
78430;SDS011;67727;50.236;22.452;2023-07-13T02:49:09;16.70;;;11.90;;
78430;SDS011;67727;50.236;22.452;2023-07-13T02:51:36;17.80;;;11.90;;
78430;SDS011;67727;50.236;22.452;2023-07-13T02:54:03;16.60;;;10.50;;
78430;SDS011;67727;50.236;22.452;2023-07-13T02:56:31;13.20;;;10.20;;
78430;SDS011;67727;50.236;22.452;2023-07-13T02:58:58;14.10;;;9.80;;
78430;SDS011;67727;50.236;22.452;2023-07-13T03:01:25;14.00;;;10.40;;
78430;SDS011;67727;50.236;22.452;2023-07-13T03:03:52;16.70;;;10.00;;
78430;SDS011;67727;50.236;22.452;2023-07-13T03:06:19;13.00;;;9.90;;
78430;SDS011;67727;50.236;22.452;2023-07-13T03:08:47;11.90;;;9.20;;
78430;SDS011;67727;50.236;22.452;2023-07-13T03:11:17;13.70;;;9.90;;
78430;SDS011;67727;50.236;22.452;2023-07-13T03:13:44;11.90;;;9.50;;
78430;SDS011;67727;50.236;22.452;2023-07-13T03:16:12;13.90;;;10.10;;
78430;SDS011;67727;50.236;22.452;2023-07-13T03:18:42;17.20;;;10.70;;
78430;SDS011;67727;50.236;22.452;2023-07-13T03:21:09;16.90;;;10.50;;
78430;SDS011;67727;50.236;22.452;2023-07-13T03:23:36;13.70;;;10.10;;
78430;SDS011;67727;50.236;22.452;2023-07-13T03:28:36;15.30;;;10.00;;
78430;SDS011;67727;50.236;22.452;2023-07-13T03:31:03;14.40;;;9.90;;
78430;SDS011;67727;50.236;22.452;2023-07-13T03:33:33;14.80;;;10.00;;
78430;SDS011;67727;50.236;22.452;2023-07-13T03:36:00;17.40;;;10.50;;
78430;SDS011;67727;50.236;22.452;2023-07-13T03:38:27;18.60;;;10.10;;
78430;SDS011;67727;50.236;22.452;2023-07-13T03:40:53;13.30;;;10.90;;
78430;SDS011;67727;50.236;22.452;2023-07-13T03:43:20;12.00;;;10.40;;
78430;SDS011;67727;50.236;22.452;2023-07-13T03:45:47;15.10;;;10.40;;
78430;SDS011;67727;50.236;22.452;2023-07-13T03:50:41;14.10;;;9.80;;
78430;SDS011;67727;50.236;22.452;2023-07-13T03:53:08;16.50;;;9.70;;
78430;SDS011;67727;50.236;22.452;2023-07-13T04:00:53;15.70;;;9.90;;
78430;SDS011;67727;50.236;22.452;2023-07-13T04:03:20;11.60;;;8.80;;
78430;SDS011;67727;50.236;22.452;2023-07-13T04:05:47;13.40;;;9.60;;
78430;SDS011;67727;50.236;22.452;2023-07-13T04:08:14;13.80;;;10.30;;
78430;SDS011;67727;50.236;22.452;2023-07-13T04:13:08;14.60;;;11.50;;
78430;SDS011;67727;50.236;22.452;2023-07-13T04:15:35;17.90;;;10.90;;
78430;SDS011;67727;50.236;22.452;2023-07-13T04:18:02;13.90;;;9.30;;
78430;SDS011;67727;50.236;22.452;2023-07-13T04:20:29;11.00;;;8.10;;
78430;SDS011;67727;50.236;22.452;2023-07-13T04:22:56;10.50;;;7.80;;
78430;SDS011;67727;50.236;22.452;2023-07-13T04:25:23;10.20;;;7.30;;
78430;SDS011;67727;50.236;22.452;2023-07-13T04:27:50;12.20;;;9.20;;
78430;SDS011;67727;50.236;22.452;2023-07-13T04:30:18;10.90;;;8.70;;
78430;SDS011;67727;50.236;22.452;2023-07-13T04:32:45;12.80;;;9.00;;
78430;SDS011;67727;50.236;22.452;2023-07-13T04:35:12;12.60;;;8.80;;
78430;SDS011;67727;50.236;22.452;2023-07-13T04:37:40;11.60;;;8.50;;
78430;SDS011;67727;50.236;22.452;2023-07-13T04:40:07;10.30;;;7.40;;
78430;SDS011;67727;50.236;22.452;2023-07-13T04:42:38;15.10;;;9.30;;
78430;SDS011;67727;50.236;22.452;2023-07-13T04:47:33;11.90;;;9.20;;
78430;SDS011;67727;50.236;22.452;2023-07-13T04:50:00;14.80;;;10.40;;
78430;SDS011;67727;50.236;22.452;2023-07-13T04:52:27;17.90;;;10.50;;
78430;SDS011;67727;50.236;22.452;2023-07-13T04:54:54;15.80;;;11.30;;
78430;SDS011;67727;50.236;22.452;2023-07-13T04:57:21;14.50;;;9.70;;
78430;SDS011;67727;50.236;22.452;2023-07-13T04:59:48;14.40;;;10.10;;
78430;SDS011;67727;50.236;22.452;2023-07-13T05:02:15;13.10;;;10.00;;
78430;SDS011;67727;50.236;22.452;2023-07-13T05:04:41;15.90;;;9.80;;
78430;SDS011;67727;50.236;22.452;2023-07-13T05:07:08;20.50;;;10.10;;
78430;SDS011;67727;50.236;22.452;2023-07-13T05:09:35;12.60;;;9.60;;
78430;SDS011;67727;50.236;22.452;2023-07-13T05:14:28;19.00;;;12.00;;
78430;SDS011;67727;50.236;22.452;2023-07-13T05:16:55;17.80;;;13.10;;
78430;SDS011;67727;50.236;22.452;2023-07-13T05:19:23;13.70;;;10.40;;
78430;SDS011;67727;50.236;22.452;2023-07-13T05:24:17;16.30;;;9.90;;
78430;SDS011;67727;50.236;22.452;2023-07-13T05:26:44;13.90;;;10.30;;
78430;SDS011;67727;50.236;22.452;2023-07-13T05:29:12;11.10;;;9.30;;
78430;SDS011;67727;50.236;22.452;2023-07-13T05:31:38;15.80;;;11.20;;
78430;SDS011;67727;50.236;22.452;2023-07-13T05:34:06;14.80;;;9.80;;
78430;SDS011;67727;50.236;22.452;2023-07-13T05:36:33;13.20;;;10.60;;
78430;SDS011;67727;50.236;22.452;2023-07-13T05:39:00;13.80;;;10.70;;
78430;SDS011;67727;50.236;22.452;2023-07-13T05:41:27;13.30;;;10.20;;
78430;SDS011;67727;50.236;22.452;2023-07-13T05:43:54;13.10;;;10.20;;
78430;SDS011;67727;50.236;22.452;2023-07-13T05:46:20;11.70;;;8.30;;
78430;SDS011;67727;50.236;22.452;2023-07-13T05:51:14;12.20;;;7.50;;
78430;SDS011;67727;50.236;22.452;2023-07-13T05:53:41;11.40;;;8.10;;
78430;SDS011;67727;50.236;22.452;2023-07-13T05:56:08;10.20;;;8.30;;
78430;SDS011;67727;50.236;22.452;2023-07-13T05:58:34;13.60;;;8.90;;
78430;SDS011;67727;50.236;22.452;2023-07-13T06:01:02;12.30;;;8.60;;
78430;SDS011;67727;50.236;22.452;2023-07-13T06:03:36;13.50;;;7.90;;
78430;SDS011;67727;50.236;22.452;2023-07-13T06:06:07;15.80;;;9.60;;
78430;SDS011;67727;50.236;22.452;2023-07-13T06:08:35;11.80;;;9.10;;
78430;SDS011;67727;50.236;22.452;2023-07-13T06:11:07;10.50;;;7.70;;
78430;SDS011;67727;50.236;22.452;2023-07-13T06:13:39;10.50;;;7.60;;
78430;SDS011;67727;50.236;22.452;2023-07-13T06:18:33;11.90;;;8.30;;
78430;SDS011;67727;50.236;22.452;2023-07-13T06:23:47;9.70;;;8.50;;
78430;SDS011;67727;50.236;22.452;2023-07-13T06:26:15;10.40;;;7.90;;
78430;SDS011;67727;50.236;22.452;2023-07-13T06:28:42;12.10;;;8.30;;
78430;SDS011;67727;50.236;22.452;2023-07-13T06:31:10;10.50;;;7.90;;
78430;SDS011;67727;50.236;22.452;2023-07-13T06:33:38;9.80;;;8.40;;
78430;SDS011;67727;50.236;22.452;2023-07-13T06:36:05;10.30;;;8.50;;
78430;SDS011;67727;50.236;22.452;2023-07-13T06:38:34;11.20;;;8.40;;
78430;SDS011;67727;50.236;22.452;2023-07-13T06:41:01;11.00;;;8.50;;
78430;SDS011;67727;50.236;22.452;2023-07-13T06:43:28;9.50;;;8.30;;
78430;SDS011;67727;50.236;22.452;2023-07-13T06:45:56;9.30;;;7.70;;
78430;SDS011;67727;50.236;22.452;2023-07-13T06:48:22;10.30;;;8.20;;
78430;SDS011;67727;50.236;22.452;2023-07-13T06:50:50;12.40;;;7.50;;
78430;SDS011;67727;50.236;22.452;2023-07-13T06:53:18;11.50;;;7.80;;
78430;SDS011;67727;50.236;22.452;2023-07-13T06:55:45;13.90;;;8.70;;
78430;SDS011;67727;50.236;22.452;2023-07-13T06:58:14;12.50;;;8.40;;
78430;SDS011;67727;50.236;22.452;2023-07-13T07:00:42;10.10;;;8.10;;
78430;SDS011;67727;50.236;22.452;2023-07-13T07:03:09;11.90;;;8.30;;
78430;SDS011;67727;50.236;22.452;2023-07-13T07:05:36;9.90;;;7.90;;
78430;SDS011;67727;50.236;22.452;2023-07-13T07:08:03;11.30;;;7.40;;
78430;SDS011;67727;50.236;22.452;2023-07-13T07:10:30;10.40;;;8.40;;
78430;SDS011;67727;50.236;22.452;2023-07-13T07:12:58;9.60;;;8.00;;
78430;SDS011;67727;50.236;22.452;2023-07-13T07:17:52;9.90;;;7.80;;
78430;SDS011;67727;50.236;22.452;2023-07-13T07:20:19;11.10;;;7.80;;
78430;SDS011;67727;50.236;22.452;2023-07-13T07:22:47;12.30;;;8.20;;
78430;SDS011;67727;50.236;22.452;2023-07-13T07:25:14;10.10;;;8.10;;
78430;SDS011;67727;50.236;22.452;2023-07-13T07:27:41;11.80;;;7.80;;
78430;SDS011;67727;50.236;22.452;2023-07-13T07:30:07;11.30;;;8.30;;
78430;SDS011;67727;50.236;22.452;2023-07-13T07:32:35;11.70;;;8.80;;
78430;SDS011;67727;50.236;22.452;2023-07-13T07:35:01;10.20;;;8.50;;
78430;SDS011;67727;50.236;22.452;2023-07-13T07:37:28;11.10;;;7.50;;
78430;SDS011;67727;50.236;22.452;2023-07-13T07:39:55;10.40;;;7.70;;
78430;SDS011;67727;50.236;22.452;2023-07-13T07:42:22;10.30;;;8.00;;
78430;SDS011;67727;50.236;22.452;2023-07-13T07:47:16;7.90;;;7.00;;
78430;SDS011;67727;50.236;22.452;2023-07-13T07:49:42;13.60;;;8.30;;
78430;SDS011;67727;50.236;22.452;2023-07-13T07:52:09;10.90;;;7.50;;
78430;SDS011;67727;50.236;22.452;2023-07-13T07:54:36;10.40;;;8.30;;
78430;SDS011;67727;50.236;22.452;2023-07-13T07:59:30;10.40;;;7.70;;
78430;SDS011;67727;50.236;22.452;2023-07-13T08:04:23;8.90;;;7.10;;
78430;SDS011;67727;50.236;22.452;2023-07-13T08:09:16;11.10;;;7.80;;
78430;SDS011;67727;50.236;22.452;2023-07-13T08:11:43;11.90;;;8.10;;
78430;SDS011;67727;50.236;22.452;2023-07-13T08:16:37;8.50;;;7.00;;
78430;SDS011;67727;50.236;22.452;2023-07-13T08:19:04;10.80;;;8.00;;
78430;SDS011;67727;50.236;22.452;2023-07-13T08:21:30;13.50;;;7.60;;
78430;SDS011;67727;50.236;22.452;2023-07-13T08:23:57;10.20;;;6.80;;
78430;SDS011;67727;50.236;22.452;2023-07-13T08:28:51;9.60;;;7.20;;
78430;SDS011;67727;50.236;22.452;2023-07-13T08:31:18;8.90;;;7.30;;
78430;SDS011;67727;50.236;22.452;2023-07-13T08:36:11;10.50;;;7.20;;
78430;SDS011;67727;50.236;22.452;2023-07-13T08:38:38;8.60;;;6.10;;
78430;SDS011;67727;50.236;22.452;2023-07-13T08:46:14;10.30;;;7.20;;
78430;SDS011;67727;50.236;22.452;2023-07-13T08:48:46;10.10;;;6.50;;
78430;SDS011;67727;50.236;22.452;2023-07-13T08:54:05;11.50;;;6.60;;
78430;SDS011;67727;50.236;22.452;2023-07-13T08:56:40;10.00;;;6.70;;
78430;SDS011;67727;50.236;22.452;2023-07-13T08:59:13;9.30;;;7.10;;
78430;SDS011;67727;50.236;22.452;2023-07-13T09:02:00;8.90;;;6.70;;
78430;SDS011;67727;50.236;22.452;2023-07-13T09:04:35;10.80;;;7.00;;
78430;SDS011;67727;50.236;22.452;2023-07-13T09:14:57;8.00;;;6.10;;
78430;SDS011;67727;50.236;22.452;2023-07-13T09:17:28;10.10;;;7.30;;
78430;SDS011;67727;50.236;22.452;2023-07-13T09:20:17;10.20;;;6.80;;
78430;SDS011;67727;50.236;22.452;2023-07-13T09:22:51;7.90;;;6.00;;
78430;SDS011;67727;50.236;22.452;2023-07-13T09:25:35;9.20;;;6.80;;
78430;SDS011;67727;50.236;22.452;2023-07-13T09:28:19;9.40;;;7.20;;
78430;SDS011;67727;50.236;22.452;2023-07-13T09:31:04;8.30;;;6.30;;
78430;SDS011;67727;50.236;22.452;2023-07-13T09:33:49;10.00;;;6.50;;
78430;SDS011;67727;50.236;22.452;2023-07-13T09:36:21;8.60;;;7.20;;
78430;SDS011;67727;50.236;22.452;2023-07-13T09:38:53;8.80;;;7.20;;
78430;SDS011;67727;50.236;22.452;2023-07-13T09:42:00;9.60;;;6.70;;
78430;SDS011;67727;50.236;22.452;2023-07-13T09:44:38;8.00;;;7.00;;
78430;SDS011;67727;50.236;22.452;2023-07-13T09:49:53;12.40;;;8.10;;
78430;SDS011;67727;50.236;22.452;2023-07-13T09:52:44;10.60;;;7.40;;
78430;SDS011;67727;50.236;22.452;2023-07-13T09:57:54;12.50;;;7.80;;
78430;SDS011;67727;50.236;22.452;2023-07-13T10:00:25;11.20;;;7.90;;
78430;SDS011;67727;50.236;22.452;2023-07-13T10:05:43;9.30;;;7.10;;
78430;SDS011;67727;50.236;22.452;2023-07-13T10:10:46;10.60;;;7.30;;
78430;SDS011;67727;50.236;22.452;2023-07-13T10:13:26;8.30;;;7.30;;
78430;SDS011;67727;50.236;22.452;2023-07-13T10:15:56;11.20;;;6.40;;
78430;SDS011;67727;50.236;22.452;2023-07-13T10:18:25;9.60;;;6.90;;
78430;SDS011;67727;50.236;22.452;2023-07-13T10:21:15;7.80;;;6.80;;
78430;SDS011;67727;50.236;22.452;2023-07-13T10:23:42;8.60;;;6.40;;
78430;SDS011;67727;50.236;22.452;2023-07-13T10:26:13;10.50;;;7.20;;
78430;SDS011;67727;50.236;22.452;2023-07-13T10:28:46;10.10;;;7.80;;
78430;SDS011;67727;50.236;22.452;2023-07-13T10:31:19;10.80;;;7.40;;
78430;SDS011;67727;50.236;22.452;2023-07-13T10:33:47;8.50;;;6.80;;
78430;SDS011;67727;50.236;22.452;2023-07-13T10:36:32;8.90;;;7.20;;
78430;SDS011;67727;50.236;22.452;2023-07-13T10:39:05;10.50;;;7.20;;
78430;SDS011;67727;50.236;22.452;2023-07-13T10:41:39;7.20;;;6.30;;
78430;SDS011;67727;50.236;22.452;2023-07-13T10:44:13;9.10;;;6.70;;
78430;SDS011;67727;50.236;22.452;2023-07-13T10:46:46;9.90;;;6.50;;
78430;SDS011;67727;50.236;22.452;2023-07-13T10:49:13;8.30;;;7.00;;
78430;SDS011;67727;50.236;22.452;2023-07-13T10:51:42;11.20;;;6.90;;
78430;SDS011;67727;50.236;22.452;2023-07-13T10:54:22;8.00;;;6.70;;
78430;SDS011;67727;50.236;22.452;2023-07-13T10:59:39;8.70;;;7.80;;
78430;SDS011;67727;50.236;22.452;2023-07-13T11:02:26;9.20;;;7.10;;
78430;SDS011;67727;50.236;22.452;2023-07-13T11:04:56;9.90;;;7.20;;
78430;SDS011;67727;50.236;22.452;2023-07-13T11:07:28;9.00;;;7.00;;
78430;SDS011;67727;50.236;22.452;2023-07-13T11:09:57;8.20;;;6.60;;
78430;SDS011;67727;50.236;22.452;2023-07-13T11:15:26;8.40;;;6.60;;
78430;SDS011;67727;50.236;22.452;2023-07-13T11:17:56;9.50;;;7.80;;
78430;SDS011;67727;50.236;22.452;2023-07-13T11:25:40;7.30;;;6.10;;
78430;SDS011;67727;50.236;22.452;2023-07-13T11:35:35;9.00;;;6.70;;
78430;SDS011;67727;50.236;22.452;2023-07-13T11:38:15;14.50;;;8.60;;
78430;SDS011;67727;50.236;22.452;2023-07-13T11:40:46;9.70;;;7.70;;
78430;SDS011;67727;50.236;22.452;2023-07-13T11:43:15;10.20;;;7.30;;
78430;SDS011;67727;50.236;22.452;2023-07-13T11:45:43;10.40;;;8.10;;
78430;SDS011;67727;50.236;22.452;2023-07-13T11:48:20;9.00;;;8.00;;
78430;SDS011;67727;50.236;22.452;2023-07-13T11:50:50;9.50;;;7.30;;
78430;SDS011;67727;50.236;22.452;2023-07-13T11:53:19;11.90;;;7.40;;
78430;SDS011;67727;50.236;22.452;2023-07-13T11:55:46;9.20;;;7.50;;
78430;SDS011;67727;50.236;22.452;2023-07-13T11:58:14;9.30;;;7.20;;
78430;SDS011;67727;50.236;22.452;2023-07-13T12:00:47;9.80;;;6.50;;
78430;SDS011;67727;50.236;22.452;2023-07-13T12:03:16;9.70;;;6.90;;
78430;SDS011;67727;50.236;22.452;2023-07-13T12:06:00;10.80;;;7.30;;
78430;SDS011;67727;50.236;22.452;2023-07-13T12:08:29;8.30;;;6.30;;
78430;SDS011;67727;50.236;22.452;2023-07-13T12:10:58;8.80;;;6.80;;
78430;SDS011;67727;50.236;22.452;2023-07-13T12:13:26;11.70;;;6.60;;
78430;SDS011;67727;50.236;22.452;2023-07-13T12:15:55;8.80;;;6.80;;
78430;SDS011;67727;50.236;22.452;2023-07-13T12:18:23;7.80;;;5.90;;
78430;SDS011;67727;50.236;22.452;2023-07-13T12:20:57;10.60;;;6.30;;
78430;SDS011;67727;50.236;22.452;2023-07-13T12:26:04;11.50;;;6.60;;
78430;SDS011;67727;50.236;22.452;2023-07-13T12:28:42;10.30;;;7.00;;
78430;SDS011;67727;50.236;22.452;2023-07-13T12:31:23;10.80;;;6.60;;
78430;SDS011;67727;50.236;22.452;2023-07-13T12:33:59;9.90;;;6.20;;
78430;SDS011;67727;50.236;22.452;2023-07-13T12:36:29;8.50;;;6.10;;
78430;SDS011;67727;50.236;22.452;2023-07-13T12:38:59;10.10;;;6.00;;
78430;SDS011;67727;50.236;22.452;2023-07-13T12:41:31;10.10;;;6.50;;
78430;SDS011;67727;50.236;22.452;2023-07-13T12:43:59;9.60;;;7.10;;
78430;SDS011;67727;50.236;22.452;2023-07-13T12:46:26;11.20;;;7.10;;
78430;SDS011;67727;50.236;22.452;2023-07-13T12:48:56;8.40;;;6.20;;
78430;SDS011;67727;50.236;22.452;2023-07-13T12:51:25;10.20;;;6.50;;
78430;SDS011;67727;50.236;22.452;2023-07-13T12:53:58;9.10;;;5.90;;
78430;SDS011;67727;50.236;22.452;2023-07-13T12:56:38;9.30;;;6.60;;
78430;SDS011;67727;50.236;22.452;2023-07-13T12:59:05;9.50;;;6.40;;
78430;SDS011;67727;50.236;22.452;2023-07-13T13:01:34;7.80;;;5.80;;
78430;SDS011;67727;50.236;22.452;2023-07-13T13:04:03;9.00;;;6.70;;
78430;SDS011;67727;50.236;22.452;2023-07-13T13:06:35;10.60;;;6.20;;
78430;SDS011;67727;50.236;22.452;2023-07-13T13:09:03;8.50;;;5.30;;
78430;SDS011;67727;50.236;22.452;2023-07-13T13:11:35;9.80;;;6.40;;
78430;SDS011;67727;50.236;22.452;2023-07-13T13:19:01;8.90;;;5.90;;
78430;SDS011;67727;50.236;22.452;2023-07-13T13:21:53;10.60;;;5.80;;
78430;SDS011;67727;50.236;22.452;2023-07-13T13:24:23;7.60;;;5.60;;
78430;SDS011;67727;50.236;22.452;2023-07-13T13:26:53;9.30;;;4.70;;
78430;SDS011;67727;50.236;22.452;2023-07-13T13:29:21;6.60;;;4.10;;
78430;SDS011;67727;50.236;22.452;2023-07-13T13:31:53;8.30;;;4.80;;
78430;SDS011;67727;50.236;22.452;2023-07-13T13:34:21;7.10;;;3.80;;
78430;SDS011;67727;50.236;22.452;2023-07-13T13:36:53;7.70;;;3.40;;
78430;SDS011;67727;50.236;22.452;2023-07-13T13:41:52;7.30;;;3.60;;
78430;SDS011;67727;50.236;22.452;2023-07-13T13:44:21;7.20;;;3.00;;
78430;SDS011;67727;50.236;22.452;2023-07-13T13:46:49;5.50;;;3.00;;
78430;SDS011;67727;50.236;22.452;2023-07-13T13:49:19;6.30;;;3.30;;
78430;SDS011;67727;50.236;22.452;2023-07-13T13:51:48;11.00;;;3.80;;
78430;SDS011;67727;50.236;22.452;2023-07-13T13:54:15;7.30;;;3.50;;
78430;SDS011;67727;50.236;22.452;2023-07-13T13:56:44;5.10;;;3.20;;
78430;SDS011;67727;50.236;22.452;2023-07-13T13:59:13;4.40;;;2.80;;
78430;SDS011;67727;50.236;22.452;2023-07-13T14:01:41;6.00;;;2.60;;
78430;SDS011;67727;50.236;22.452;2023-07-13T14:04:14;4.00;;;2.80;;
78430;SDS011;67727;50.236;22.452;2023-07-13T14:06:43;4.80;;;2.50;;
78430;SDS011;67727;50.236;22.452;2023-07-13T14:09:14;4.70;;;2.70;;
78430;SDS011;67727;50.236;22.452;2023-07-13T14:11:42;3.20;;;2.10;;
78430;SDS011;67727;50.236;22.452;2023-07-13T14:14:17;3.90;;;2.50;;
78430;SDS011;67727;50.236;22.452;2023-07-13T14:16:49;6.80;;;2.90;;
78430;SDS011;67727;50.236;22.452;2023-07-13T14:19:19;5.50;;;2.20;;
78430;SDS011;67727;50.236;22.452;2023-07-13T14:21:47;6.40;;;2.70;;
78430;SDS011;67727;50.236;22.452;2023-07-13T14:24:19;5.70;;;2.90;;
78430;SDS011;67727;50.236;22.452;2023-07-13T14:26:46;6.70;;;3.60;;
78430;SDS011;67727;50.236;22.452;2023-07-13T14:29:14;4.60;;;3.50;;
78430;SDS011;67727;50.236;22.452;2023-07-13T14:31:44;5.70;;;3.20;;
78430;SDS011;67727;50.236;22.452;2023-07-13T14:34:11;5.90;;;2.70;;
78430;SDS011;67727;50.236;22.452;2023-07-13T14:36:41;6.10;;;3.10;;
78430;SDS011;67727;50.236;22.452;2023-07-13T14:39:13;4.80;;;3.30;;
78430;SDS011;67727;50.236;22.452;2023-07-13T14:41:43;6.70;;;3.50;;
78430;SDS011;67727;50.236;22.452;2023-07-13T14:44:17;6.30;;;3.40;;
78430;SDS011;67727;50.236;22.452;2023-07-13T14:46:47;5.50;;;3.30;;
78430;SDS011;67727;50.236;22.452;2023-07-13T14:49:20;7.30;;;3.50;;
78430;SDS011;67727;50.236;22.452;2023-07-13T14:51:55;4.70;;;2.60;;
78430;SDS011;67727;50.236;22.452;2023-07-13T14:54:24;4.70;;;2.90;;
78430;SDS011;67727;50.236;22.452;2023-07-13T14:56:52;4.80;;;3.20;;
78430;SDS011;67727;50.236;22.452;2023-07-13T14:59:19;4.70;;;3.10;;
78430;SDS011;67727;50.236;22.452;2023-07-13T15:04:15;5.70;;;4.10;;
78430;SDS011;67727;50.236;22.452;2023-07-13T15:06:53;6.20;;;3.80;;
78430;SDS011;67727;50.236;22.452;2023-07-13T15:09:26;7.20;;;4.50;;
78430;SDS011;67727;50.236;22.452;2023-07-13T15:11:54;7.90;;;3.80;;
78430;SDS011;67727;50.236;22.452;2023-07-13T15:14:22;7.00;;;3.30;;
78430;SDS011;67727;50.236;22.452;2023-07-13T15:16:51;6.60;;;3.80;;
78430;SDS011;67727;50.236;22.452;2023-07-13T15:19:20;9.30;;;4.10;;
78430;SDS011;67727;50.236;22.452;2023-07-13T15:21:49;5.20;;;3.30;;
78430;SDS011;67727;50.236;22.452;2023-07-13T15:24:18;6.50;;;3.50;;
78430;SDS011;67727;50.236;22.452;2023-07-13T15:26:45;5.70;;;3.70;;
78430;SDS011;67727;50.236;22.452;2023-07-13T15:29:13;7.30;;;3.60;;
78430;SDS011;67727;50.236;22.452;2023-07-13T15:31:40;6.80;;;3.40;;
78430;SDS011;67727;50.236;22.452;2023-07-13T15:34:14;5.00;;;3.50;;
78430;SDS011;67727;50.236;22.452;2023-07-13T15:36:43;9.00;;;3.50;;
78430;SDS011;67727;50.236;22.452;2023-07-13T15:41:43;6.00;;;3.60;;
78430;SDS011;67727;50.236;22.452;2023-07-13T15:46:55;8.10;;;4.20;;
78430;SDS011;67727;50.236;22.452;2023-07-13T15:49:22;5.90;;;4.10;;
78430;SDS011;67727;50.236;22.452;2023-07-13T15:51:49;4.80;;;3.30;;
78430;SDS011;67727;50.236;22.452;2023-07-13T15:54:17;6.90;;;3.00;;
78430;SDS011;67727;50.236;22.452;2023-07-13T15:56:47;4.90;;;2.70;;
78430;SDS011;67727;50.236;22.452;2023-07-13T15:59:19;5.30;;;2.60;;
78430;SDS011;67727;50.236;22.452;2023-07-13T16:01:46;5.60;;;3.10;;
78430;SDS011;67727;50.236;22.452;2023-07-13T16:04:15;9.20;;;2.70;;
78430;SDS011;67727;50.236;22.452;2023-07-13T16:06:46;4.80;;;2.50;;
78430;SDS011;67727;50.236;22.452;2023-07-13T16:09:18;4.50;;;2.80;;
78430;SDS011;67727;50.236;22.452;2023-07-13T16:11:48;6.60;;;3.20;;
78430;SDS011;67727;50.236;22.452;2023-07-13T16:14:16;6.90;;;3.40;;
78430;SDS011;67727;50.236;22.452;2023-07-13T16:16:44;6.30;;;3.20;;
78430;SDS011;67727;50.236;22.452;2023-07-13T16:19:12;5.50;;;3.60;;
78430;SDS011;67727;50.236;22.452;2023-07-13T16:21:41;5.90;;;3.70;;
78430;SDS011;67727;50.236;22.452;2023-07-13T16:24:19;6.30;;;4.00;;
78430;SDS011;67727;50.236;22.452;2023-07-13T16:26:48;6.90;;;4.10;;
78430;SDS011;67727;50.236;22.452;2023-07-13T16:29:17;5.20;;;3.50;;
78430;SDS011;67727;50.236;22.452;2023-07-13T16:34:29;5.90;;;4.60;;
78430;SDS011;67727;50.236;22.452;2023-07-13T16:36:57;4.70;;;3.40;;
78430;SDS011;67727;50.236;22.452;2023-07-13T16:39:25;5.60;;;3.60;;
78430;SDS011;67727;50.236;22.452;2023-07-13T16:41:54;5.90;;;3.40;;
78430;SDS011;67727;50.236;22.452;2023-07-13T16:44:22;5.50;;;3.30;;
78430;SDS011;67727;50.236;22.452;2023-07-13T16:46:51;4.50;;;3.50;;